Latest Weather Observations for Grove

IDT60801

Issued at 11:05 am EST Wednesday 17 September 2014 (issued every 30 minutes, with the page automatically refreshed every 10 minutes)

About weather observations | Map of weather stations | Latest weather observations for TAS | Other Formats
Station Details ID: 094220 Name: GROVE (RESEARCH STATION) Lat: -42.99 Lon: 147.07 Height: 65.0 m
Data from the previous 72 hours. | See also: Recent months at Grove
Date/Time
EST
Temp
°C
App
Temp
°C
Dew
Point
Rel
Hum
%
Delta-T
°C
Wind Press
QNH
hPa
Press
MSL
hPa
Rain
since 9 am
mm
Dir
 
Spd
km/h
Gust
km/h
Spd
kts
Gust
kts
17/11:00am 7.2 2.5 5.2 87 0.9 WSW 19 30 10 16 - - 1.8
17/10:30am 8.6 7.3 6.0 84 1.2 W 2 6 1 3 - - 0.8
17/10:00am 8.9 5.2 4.6 74 1.9 W 13 22 7 12 - - 0.2
17/09:30am 10.6 8.2 5.1 69 2.5 SSW 7 13 4 7 - - 0.0
17/09:00am 9.5 7.2 5.6 76 1.8 S 7 11 4 6 - - 0.0
17/08:30am 8.9 8.0 6.1 82 1.3 CALM 0 4 0 2 - - 0.0
17/08:00am 7.0 5.3 5.9 93 0.5 E 4 9 2 5 - - 0.0
17/07:30am 4.7 2.2 4.5 99 0.1 ENE 7 9 4 5 - - 0.0
17/07:00am 4.6 3.4 4.4 99 0.1 CALM 0 0 0 0 - - 0.0
17/06:30am 4.3 3.0 4.1 99 0.1 CALM 0 0 0 0 - - 0.0
17/06:00am 4.4 2.0 4.4 100 0.0 SSW 6 7 3 4 - - 0.0
17/05:30am 4.4 2.0 4.2 99 0.1 NNE 6 7 3 4 - - 0.0
17/05:00am 4.3 1.9 4.1 99 0.1 SSE 6 9 3 5 - - 0.0
17/04:30am 4.8 2.2 4.3 97 0.2 NNE 7 11 4 6 - - 0.0
17/04:00am 4.6 2.0 4.4 99 0.1 NNE 7 9 4 5 - - 0.0
17/03:30am 4.2 2.9 4.0 99 0.1 CALM 0 2 0 1 - - 0.0
17/03:00am 4.1 1.6 3.6 97 0.2 NNE 6 9 3 5 - - 0.0
17/02:30am 4.4 3.1 4.2 99 0.1 CALM 0 0 0 0 - - 0.0
17/02:00am 4.5 2.1 4.3 99 0.1 SW 6 11 3 6 - - 0.0
17/01:30am 4.9 3.3 4.4 97 0.2 SE 2 9 1 5 - - 0.0
17/01:00am 4.9 2.3 4.4 97 0.2 E 7 9 4 5 - - 0.0
17/12:30am 5.2 2.8 4.3 94 0.4 NNE 6 7 3 4 - - 0.0
17/12:00am 4.6 3.0 4.4 99 0.1 NE 2 6 1 3 - - 0.0
 
Date/Time
EST
Temp
°C
App
Temp
°C
Dew
Point
Rel
Hum
%
Delta-T
°C
Wind Press
QNH
hPa
Press
MSL
hPa
Rain
since 9 am
mm
Dir
 
Spd
km/h
Gust
km/h
Spd
kts
Gust
kts
16/11:30pm 4.3 2.6 3.8 97 0.2 NNE 2 6 1 3 - - 0.0
16/11:00pm 4.1 1.4 3.6 97 0.2 NNE 7 9 4 5 - - 0.0
16/10:30pm 4.3 1.6 3.8 97 0.2 NE 7 11 4 6 - - 0.0
16/10:00pm 4.7 2.1 4.2 97 0.2 N 7 9 4 5 - - 0.0
16/09:30pm 5.4 2.9 4.7 95 0.3 NE 7 7 4 4 - - 0.0
16/09:00pm 6.4 3.9 5.0 91 0.6 E 7 9 4 5 - - 0.0
16/08:30pm 6.8 4.1 5.5 91 0.6 N 9 13 5 7 - - 0.0
16/08:00pm 6.6 4.4 5.5 93 0.5 SE 6 11 3 6 - - 0.0
16/07:30pm 6.7 5.7 5.6 93 0.5 CALM 0 2 0 1 - - 0.0
16/07:00pm 7.9 5.9 6.4 90 0.7 NNW 6 6 3 3 - - 0.0
16/06:30pm 9.5 7.4 6.0 79 1.6 NNE 6 7 3 4 - - 0.0
16/06:00pm 11.5 9.2 5.7 67 2.7 NE 7 9 4 5 - - 0.0
16/05:30pm 12.0 8.8 5.3 63 3.1 ENE 11 15 6 8 - - 0.0
16/05:00pm 12.3 9.5 5.2 62 3.3 ENE 9 11 5 6 - - 0.0
16/04:30pm 12.6 9.0 4.8 59 3.6 ENE 13 17 7 9 - - 0.0
16/04:00pm 12.6 8.9 4.5 58 3.7 E 13 19 7 10 - - 0.0
16/03:30pm 13.0 8.7 3.4 52 4.3 E 15 22 8 12 - - 0.0
16/03:00pm 13.9 10.1 3.8 50 4.6 E 13 - 7 - - - 0.0
16/02:30pm 14.3 11.5 3.2 47 5.0 NNE 7 9 4 5 - - 0.0
16/02:00pm 15.3 13.0 4.6 49 5.0 ENE 6 15 3 8 - - 0.0
16/01:30pm 14.2 11.0 3.1 47 5.0 ENE 9 13 5 7 - - 0.0
16/01:00pm 14.3 12.1 3.5 48 4.9 S 4 7 2 4 - - 0.0
16/12:30pm 14.3 11.6 2.9 46 5.1 NE 6 9 3 5 - - 0.0
16/12:00pm 13.6 11.1 3.7 51 4.5 SW 6 9 3 5 - - 0.0
16/11:30am 13.1 10.9 3.5 52 4.3 SSW 4 7 2 4 - - 0.0
16/11:00am 12.4 11.0 5.3 62 3.3 SW 2 6 1 3 - - 0.0
16/10:30am 10.6 9.3 4.1 64 2.9 CALM 0 0 0 0 - - 0.0
16/10:00am 9.5 8.0 4.8 72 2.1 WNW 2 6 1 3 - - 0.0
16/09:30am 7.1 5.0 3.8 79 1.4 SW 4 7 2 4 - - 0.0
16/09:00am 5.8 4.4 3.4 84 1.0 CALM 0 0 0 0 - - 0.0
16/08:30am 4.3 2.8 3.1 92 0.5 CALM 0 0 0 0 - - 0.0
16/08:00am 2.6 1.0 2.3 98 0.1 CALM 0 0 0 0 - - 0.0
16/07:30am 0.4 - - - - NNE 2 6 1 3 - - 0.0
16/07:00am -0.5 - - - - NNE 6 6 3 3 - - 0.0
16/06:30am -1.2 - - - - CALM 0 0 0 0 - - 0.0
16/06:00am -1.0 - - - - N 2 0 1 0 - - 0.0
16/05:30am -0.8 - - - - ENE 6 7 3 4 - - 0.0
16/05:00am -0.6 - - - - NE 7 9 4 5 - - 0.0
16/04:30am -0.6 - - - - CALM 0 6 0 3 - - 0.0
16/04:00am -0.3 - - - - ENE 7 9 4 5 - - 0.0
16/03:30am -0.4 - - - - NE 6 7 3 4 - - 0.0
16/03:00am -0.1 - - - - NNE 2 0 1 0 - - 0.0
16/02:30am 0.4 - - - - NE 6 7 3 4 - - 0.0
16/02:00am 0.8 -1.5 0.5 98 0.1 NNE 2 7 1 4 - - 0.0
16/01:30am 0.9 -2.1 0.9 100 0.0 NNE 6 7 3 4 - - 0.0
16/01:00am 1.5 -1.4 1.2 98 0.1 NNE 6 7 3 4 - - 0.0
16/12:30am 1.6 -1.5 1.3 98 0.1 NE 7 9 4 5 - - 0.0
16/12:00am 1.3 -1.3 1.0 98 0.1 NNE 4 9 2 5 - - 0.0
 
Date/Time
EST
Temp
°C
App
Temp
°C
Dew
Point
Rel
Hum
%
Delta-T
°C
Wind Press
QNH
hPa
Press
MSL
hPa
Rain
since 9 am
mm
Dir
 
Spd
km/h
Gust
km/h
Spd
kts
Gust
kts
15/11:30pm 1.4 -0.4 1.1 98 0.1 CALM 0 0 0 0 - - 0.0
15/11:00pm 2.1 0.4 1.8 98 0.1 CALM 0 0 0 0 - - 0.0
15/10:30pm 2.2 -0.6 1.9 98 0.1 N 6 7 3 4 - - 0.0
15/10:00pm 2.9 1.3 2.4 96 0.2 CALM 0 0 0 0 - - 0.0
15/09:30pm 3.2 1.2 2.4 94 0.3 NE 2 6 1 3 - - 0.0
15/09:00pm 3.8 1.5 2.8 93 0.4 E 4 9 2 5 - - 0.0
15/08:30pm 4.3 2.8 3.1 92 0.5 CALM 0 4 0 2 - - 0.0
15/08:00pm 5.7 4.3 3.3 84 1.0 CALM 0 0 0 0 - - 0.0
15/07:30pm 6.5 3.9 3.4 80 1.3 N 6 7 3 4 - - 0.0
15/07:00pm 8.0 5.3 2.5 68 2.3 NNW 6 9 3 5 - - 0.0
15/06:30pm 8.3 6.4 2.9 69 2.3 NNW 2 7 1 4 - - 0.0
15/06:00pm 9.1 4.6 2.2 62 2.9 E 15 19 8 10 - - 0.0
15/05:30pm 9.7 6.1 3.0 63 2.9 E 11 24 6 13 - - 0.0
15/05:00pm 10.4 6.1 3.0 60 3.2 ENE 15 22 8 12 - - 0.0
15/04:30pm 11.5 6.7 2.8 55 3.8 E 17 26 9 14 - - 0.0
15/04:00pm 11.9 6.7 2.5 52 4.1 E 19 24 10 13 - - 0.0
15/03:30pm 12.4 7.6 2.6 51 4.3 E 17 22 9 12 - - 0.0
15/03:00pm 13.1 10.2 2.4 48 4.7 S 7 19 4 10 - - 0.0
15/02:30pm 13.3 10.1 0.5 41 5.4 W 7 13 4 7 - - 0.0
15/02:00pm 13.0 9.4 0.7 43 5.2 WSW 9 15 5 8 - - 0.0
15/01:30pm 12.4 8.3 0.1 43 5.1 SW 11 15 6 8 - - 0.0
15/01:00pm 12.1 8.5 0.3 44 4.9 SW 9 15 5 8 - - 0.0
15/12:30pm 11.6 8.5 1.1 48 4.4 WSW 7 13 4 7 - - 0.0
15/12:00pm 11.2 8.1 -0.1 45 4.6 E 6 7 3 4 - - 0.0
15/11:30am 11.4 8.2 0.5 47 4.5 SW 7 13 4 7 - - 0.0
15/11:00am 9.9 6.6 0.0 50 4.0 S 7 11 4 6 - - 0.0
15/10:30am 10.1 7.7 2.1 57 3.4 ESE 4 7 2 4 - - 0.0
15/10:00am 9.2 6.8 2.1 61 3.0 SSW 4 9 2 5 - - 0.0
15/09:30am 8.6 5.7 2.7 66 2.5 SW 7 9 4 5 - - 0.0
15/09:00am 6.6 3.9 2.8 77 1.6 WSW 6 7 3 4 - - 0.0
15/08:30am 6.1 4.6 3.0 80 1.3 CALM 0 0 0 0 - - 0.0
15/08:00am 4.9 3.4 3.2 89 0.7 CALM 0 0 0 0 - - 0.0
15/07:30am 4.2 2.3 3.0 92 0.5 ENE 2 7 1 4 - - 0.0
15/07:00am 3.5 0.9 3.0 97 0.2 N 6 7 3 4 - - 0.0
15/06:30am 2.8 1.2 2.3 96 0.2 CALM 0 0 0 0 - - 0.0
15/06:00am 2.8 1.2 2.3 96 0.2 NNE 0 6 0 3 - - 0.0
15/05:30am 2.5 0.8 2.0 96 0.2 CALM 0 0 0 0 - - 0.0
15/05:00am 2.3 0.2 1.8 96 0.2 NNE 2 6 1 3 - - 0.0
15/04:30am 2.5 -0.3 2.0 96 0.2 NE 6 7 3 4 - - 0.0
15/04:00am 2.3 0.2 2.0 98 0.1 E 2 7 1 4 - - 0.0
15/03:30am 2.2 -0.7 1.7 96 0.2 SE 6 7 3 4 - - 0.0
15/03:00am 2.6 -0.2 2.3 98 0.1 S 6 7 3 4 - - 0.0
15/02:30am 2.4 -0.6 1.9 96 0.2 N 7 9 4 5 - - 0.0
15/02:00am 2.3 -0.7 1.8 96 0.2 NE 7 9 4 5 - - 0.0
15/01:30am 3.1 -0.3 2.1 93 0.4 NNE 9 9 5 5 - - 0.0
15/01:00am 3.4 1.8 2.4 93 0.4 CALM 0 0 0 0 - - 0.0
15/12:30am 4.1 2.6 2.9 92 0.5 CALM 0 0 0 0 - - 0.0
15/12:00am 4.1 1.9 3.1 93 0.4 ENE 4 7 2 4 - - 0.0
 
Date/Time
EST
Temp
°C
App
Temp
°C
Dew
Point
Rel
Hum
%
Delta-T
°C
Wind Press
QNH
hPa
Press
MSL
hPa
Rain
since 9 am
mm
Dir
 
Spd
km/h
Gust
km/h
Spd
kts
Gust
kts
14/11:30pm 4.2 2.6 2.5 89 0.7 CALM 0 0 0 0 - - 0.0
14/11:00pm 4.1 2.5 2.4 89 0.7 CALM 0 0 0 0 - - 0.0
14/10:30pm 3.9 1.0 2.4 90 0.6 NE 7 9 4 5 - - 0.0
14/10:00pm 3.9 0.9 1.9 87 0.8 NE 7 9 4 5 - - 0.0
14/09:30pm 4.7 3.0 1.9 82 1.1 CALM 0 0 0 0 - - 0.0
14/09:00pm 5.2 2.5 2.5 83 1.1 NNE 6 11 3 6 - - 0.0
14/08:30pm 5.8 3.3 1.8 75 1.6 N 4 9 2 5 - - 0.0
14/08:00pm 6.3 2.8 1.3 70 2.0 NE 9 13 5 7 - - 0.0
14/07:30pm 7.0 3.7 -0.2 60 2.8 WSW 7 13 4 7 - - 0.0
14/07:00pm 8.2 4.0 -1.2 51 3.6 SW 11 17 6 9 - - 0.0
14/06:30pm 9.0 3.9 -2.1 45 4.2 WSW 15 24 8 13 - - 0.0
14/06:00pm 9.5 4.1 -1.3 47 4.2 WSW 17 26 9 14 - - 0.0
14/05:30pm 9.9 4.2 -0.7 47 4.2 WSW 19 28 10 15 - - 0.0
14/05:00pm 10.7 4.7 -1.9 41 4.9 WSW 20 28 11 15 - - 0.0
14/04:30pm 11.2 5.2 -1.8 40 5.1 WSW 20 32 11 17 - - 0.0
14/04:00pm 11.8 5.5 -1.2 40 5.2 WSW 22 33 12 18 - - 0.0
14/03:30pm 12.3 6.8 -1.8 37 5.6 WSW 17 28 9 15 - - 0.0
14/03:00pm 12.6 6.1 -2.1 36 5.8 WSW 22 35 12 19 - - 0.0
14/02:30pm 13.2 9.0 1.6 45 5.0 WSW 13 22 7 12 - - 0.0
14/02:00pm 12.4 6.5 1.4 47 4.7 W 22 39 12 21 - - 0.0
14/01:36pm 12.0 5.1 2.6 52 4.1 W 28 46 15 25 - - 0.0
14/01:30pm 11.9 6.2 2.8 53 4.0 WSW 22 37 12 20 - - 0.0
14/01:01pm 12.5 4.6 0.9 45 4.9 WSW 32 54 17 29 - - 0.0
14/01:00pm 12.5 4.5 0.2 43 5.1 WSW 32 46 17 25 - - 0.0
14/12:30pm 11.3 5.0 3.6 59 3.4 WSW 26 43 14 23 - - 0.0
14/12:00pm 11.8 4.2 2.9 54 3.9 WSW 32 67 17 36 - - 0.0
14/11:58am 11.8 3.8 1.4 49 4.4 WSW 33 67 18 36 - - 0.0
14/11:30am 12.0 4.2 1.4 48 4.5 WSW 32 44 17 24 - - 0.0

Other Formats:

Comma delimited format used in spreadsheet applications
http://www.bom.gov.au/fwo/IDT60801/IDT60801.95977.axf

JavaScript Object Notation format (JSON) in row-major order
http://www.bom.gov.au/fwo/IDT60801/IDT60801.95977.json